createdAt,value
2022-10-15T00:48:10.891Z,1008.677124
2022-10-15T00:48:50.887Z,1008.642212
2022-10-15T00:49:57.978Z,1008.66864
2022-10-15T00:50:54.434Z,1008.772644
2022-10-15T00:51:56.559Z,1008.823792
2022-10-15T00:52:51.665Z,1008.782532
2022-10-15T00:53:51.023Z,1008.783936
2022-10-15T00:54:49.282Z,1008.815796
2022-10-15T00:56:47.527Z,1008.928467
2022-10-15T00:57:41.252Z,1008.951538
2022-10-15T00:58:40.160Z,1008.904053
2022-10-15T00:59:33.600Z,1008.94281
2022-10-15T01:00:31.831Z,1008.944031
2022-10-15T01:01:28.110Z,1008.905579
2022-10-15T01:02:27.801Z,1008.945251
2022-10-15T01:03:28.622Z,1008.903503
2022-10-15T01:04:28.135Z,1008.919922
2022-10-15T01:05:18.556Z,1008.952515
2022-10-15T01:06:15.089Z,1008.935913
2022-10-15T01:07:14.045Z,1008.949158
2022-10-15T01:08:10.002Z,1008.916443
2022-10-15T01:09:13.825Z,1009.004089
2022-10-15T01:10:05.604Z,1009.033142
2022-10-15T01:11:06.358Z,1009.00531
2022-10-15T01:11:56.727Z,1008.987732
2022-10-15T01:12:52.835Z,1009.002747
2022-10-15T01:13:47.354Z,1009.031677
2022-10-15T01:14:50.573Z,1008.976624
2022-10-15T01:16:46.403Z,1009.027954
2022-10-15T01:17:45.765Z,1008.984314
2022-10-15T01:19:23.167Z,1008.990967
2022-10-15T01:21:37.633Z,1008.906738
2022-10-15T01:22:21.149Z,1008.877197
2022-10-15T01:23:21.259Z,1008.857422
2022-10-15T01:24:17.943Z,1008.871521
2022-10-15T01:25:13.137Z,1008.962952
2022-10-15T01:26:11.299Z,1008.882874
2022-10-15T01:27:05.847Z,1008.937439
2022-10-15T01:28:07.322Z,1008.992371
2022-10-15T01:29:02.411Z,1009.025208
2022-10-15T01:29:59.426Z,1009.046326
2022-10-15T01:31:51.201Z,1009.01532
2022-10-15T01:32:54.363Z,1009.013306
2022-10-15T01:33:53.980Z,1009.019775
2022-10-15T01:34:48.587Z,1008.967834
2022-10-15T01:36:43.759Z,1009.042603
2022-10-15T01:37:42.460Z,1009.076111
2022-10-15T01:38:36.797Z,1009.11731
2022-10-15T01:39:39.772Z,1009.035278
2022-10-15T01:40:35.201Z,1009.143066
2022-10-15T01:41:37.505Z,1009.131042
2022-10-15T01:42:30.625Z,1009.088318
2022-10-15T01:43:29.423Z,1009.198853
2022-10-15T01:44:25.143Z,1009.232361
2022-10-15T01:45:27.403Z,1009.220337
2022-10-15T01:47:21.153Z,1009.183105
2022-10-15T01:48:15.648Z,1009.187744
2022-10-15T01:49:17.941Z,1009.23053
2022-10-15T01:50:14.462Z,1009.183105
2022-10-15T01:51:14.154Z,1009.167358
2022-10-15T01:52:10.392Z,1009.096741
2022-10-15T01:53:09.610Z,1009.111267
2022-10-15T01:54:10.266Z,1009.171631
2022-10-15T01:55:01.175Z,1009.078247
2022-10-15T01:56:05.982Z,1009.070313
2022-10-15T01:56:56.738Z,1009.084717
2022-10-15T01:57:55.156Z,1009.03418
2022-10-15T01:58:48.596Z,1009.094666
2022-10-15T01:59:46.533Z,1009.089905
2022-10-15T02:00:44.692Z,1009.074158
2022-10-15T02:01:47.474Z,1009.093567
2022-10-15T02:02:40.079Z,1009.069458
2022-10-15T02:03:42.036Z,1009.154968
2022-10-15T02:04:35.295Z,1009.085266
2022-10-15T02:06:29.469Z,1009.10022
2022-10-15T02:07:25.219Z,1009.00354
2022-10-15T02:08:57.193Z,1009.037964
2022-10-15T02:09:43.493Z,1008.988647
2022-10-15T02:10:41.925Z,1009.001709
2022-10-15T02:11:45.585Z,1009.009094
2022-10-15T02:12:41.225Z,1009.001709
2022-10-15T02:13:40.855Z,1009.004456
2022-10-15T02:14:37.915Z,1008.950562
2022-10-15T02:15:37.819Z,1008.999817
2022-10-15T02:16:35.032Z,1008.954346
2022-10-15T02:17:36.857Z,1008.922668
2022-10-15T02:18:39.779Z,1008.898621
2022-10-15T02:19:41.623Z,1008.940308
2022-10-15T02:21:37.551Z,1008.91333
2022-10-15T02:22:37.404Z,1008.93573
2022-10-15T02:23:33.037Z,1008.946899
2022-10-15T02:24:37.237Z,1008.93866
2022-10-15T02:25:30.185Z,1009.081543
2022-10-15T02:27:26.729Z,1008.989624
2022-10-15T02:28:33.042Z,1008.92334
2022-10-15T02:29:29.315Z,1008.904053
2022-10-15T02:30:30.035Z,1008.877136
2022-10-15T02:31:25.528Z,1008.842529
2022-10-15T02:32:27.223Z,1008.875916
2022-10-15T02:33:28.973Z,1008.848938
2022-10-15T02:34:30.117Z,1008.841003
2022-10-15T02:35:41.445Z,1008.883667
2022-10-15T02:36:42.082Z,1008.902771
2022-10-15T02:37:47.006Z,1008.836304
2022-10-15T02:38:45.148Z,1008.836304
2022-10-15T02:39:47.597Z,1008.844421
2022-10-15T02:40:40.353Z,1008.836304
2022-10-15T02:41:42.180Z,1008.839661
2022-10-15T02:42:42.752Z,1008.804688
2022-10-15T02:43:35.934Z,1008.758972
2022-10-15T02:44:38.125Z,1008.828613
2022-10-15T02:46:33.266Z,1008.882446
2022-10-15T02:47:32.797Z,1008.947388
2022-10-15T02:49:10.137Z,1008.985413
2022-10-15T02:49:37.579Z,1008.983582
2022-10-15T02:51:36.056Z,1009.107544
2022-10-15T02:52:36.169Z,1009.011047
2022-10-15T02:53:34.331Z,1009.129761
2022-10-15T02:54:34.275Z,1009.133667
2022-10-15T02:55:30.842Z,1009.171692
2022-10-15T02:57:33.287Z,1009.151184
2022-10-15T02:58:35.126Z,1009.131714
2022-10-15T02:59:40.604Z,1009.044373
2022-10-15T03:01:43.175Z,1009.000793
2022-10-15T03:02:43.889Z,1008.977173
2022-10-15T03:03:39.819Z,1008.964539
2022-10-15T03:04:39.727Z,1008.952026
2022-10-15T03:05:41.662Z,1008.974243
2022-10-15T03:06:41.092Z,1008.907776
2022-10-15T03:07:39.261Z,1008.915894
2022-10-15T03:08:44.278Z,1008.838196
2022-10-15T03:09:41.895Z,1008.95697
2022-10-15T03:11:42.241Z,1008.88324
2022-10-15T03:12:40.460Z,1008.912964
2022-10-15T03:13:42.509Z,1008.948181
2022-10-15T03:14:40.144Z,1008.935242
2022-10-15T03:16:38.959Z,1008.921326
2022-10-15T03:17:40.127Z,1008.933533
2022-10-15T03:18:45.785Z,1008.89856
2022-10-15T03:19:41.213Z,1008.867432
2022-10-15T03:21:36.514Z,1008.917786
2022-10-15T03:22:38.324Z,1008.836914
2022-10-15T03:23:36.469Z,1008.894348
2022-10-15T03:24:41.303Z,1008.843323
2022-10-15T03:25:46.489Z,1008.78479
2022-10-15T03:26:40.758Z,1008.827637
2022-10-15T03:27:43.086Z,1008.793152
2022-10-15T03:29:38.197Z,1008.827087
2022-10-15T03:30:17.628Z,1008.820496
2022-10-15T03:31:19.005Z,1008.853638
2022-10-15T03:32:16.574Z,1008.802856
2022-10-15T03:33:14.716Z,1008.817444
2022-10-15T03:34:20.429Z,1008.769958
2022-10-15T03:35:16.231Z,1008.684631
2022-10-15T03:36:24.869Z,1008.683105
2022-10-15T03:37:22.110Z,1008.640869
2022-10-15T03:38:20.060Z,1008.598267
2022-10-15T03:39:23.989Z,1008.589844
2022-10-15T03:40:24.972Z,1008.574097
2022-10-15T03:42:18.769Z,1008.601074
2022-10-15T03:43:18.517Z,1008.636292
2022-10-15T03:44:13.667Z,1008.692993
2022-10-15T03:45:21.108Z,1008.615845
2022-10-15T03:47:11.062Z,1008.510925
2022-10-15T03:48:09.937Z,1008.580627
2022-10-15T03:49:05.829Z,1008.557434
2022-10-15T03:50:06.944Z,1008.57959
2022-10-15T03:51:59.831Z,1008.614014
2022-10-15T03:53:02.525Z,1008.667847
2022-10-15T03:54:00.225Z,1008.595459
2022-10-15T03:55:05.789Z,1008.560181
2022-10-15T03:55:57.759Z,1008.591736
2022-10-15T03:57:01.613Z,1008.672546
2022-10-15T03:57:56.394Z,1008.645569
2022-10-15T03:59:01.078Z,1008.602966
2022-10-15T03:59:54.413Z,1008.591736
2022-10-15T04:01:40.753Z,1008.602295
2022-10-15T04:02:23.163Z,1008.565796
2022-10-15T04:03:23.427Z,1008.567017
2022-10-15T04:04:20.981Z,1008.554565
2022-10-15T04:05:27.525Z,1008.545349
2022-10-15T04:07:23.462Z,1008.54718
2022-10-15T04:08:22.707Z,1008.542419
2022-10-15T04:09:24.819Z,1008.584351
2022-10-15T04:10:17.084Z,1008.575989
2022-10-15T04:11:17.964Z,1008.591736
2022-10-15T04:12:13.612Z,1008.580627
2022-10-15T04:13:10.632Z,1008.611206
2022-10-15T04:14:13.777Z,1008.649292
2022-10-15T04:15:08.210Z,1008.694824
2022-10-15T04:17:10.809Z,1008.679016
2022-10-15T04:18:12.337Z,1008.71521
2022-10-15T04:19:11.777Z,1008.666077
2022-10-15T04:20:07.562Z,1008.751465
2022-10-15T04:22:07.587Z,1008.751465
2022-10-15T04:23:07.075Z,1008.704041
2022-10-15T04:24:02.471Z,1008.73468
2022-10-15T04:25:05.909Z,1008.757874
2022-10-15T04:26:16.499Z,1008.746826
2022-10-15T04:28:13.280Z,1008.74585
2022-10-15T04:29:15.068Z,1008.737549
2022-10-15T04:30:09.313Z,1008.82666
2022-10-15T04:32:08.803Z,1008.817383
2022-10-15T04:33:53.012Z,1008.757874
2022-10-15T04:34:37.724Z,1008.752747
2022-10-15T04:36:35.105Z,1008.78125
2022-10-15T04:37:34.450Z,1008.765442
2022-10-15T04:38:34.143Z,1008.806519
2022-10-15T04:39:29.453Z,1008.80249
2022-10-15T04:40:34.427Z,1008.72583
2022-10-15T04:41:39.349Z,1008.697021
2022-10-15T04:42:34.492Z,1008.733215
2022-10-15T04:43:35.286Z,1008.837952
2022-10-15T04:44:29.696Z,1008.818665
2022-10-15T04:45:31.155Z,1008.790527
2022-10-15T04:47:27.010Z,1008.92041
2022-10-15T04:48:23.685Z,1008.846252
2022-10-15T04:49:25.711Z,1008.798828
2022-10-15T04:50:21.760Z,1008.790771
2022-10-15T04:52:20.772Z,1008.80249
2022-10-15T04:53:20.252Z,1008.78302
2022-10-15T04:54:15.544Z,1008.794128
2022-10-15T04:55:13.796Z,1008.759705
2022-10-15T04:57:17.997Z,1008.770996
2022-10-15T04:58:11.604Z,1008.735718
2022-10-15T04:59:10.364Z,1008.81366
2022-10-15T05:00:11.843Z,1008.782043
2022-10-15T05:01:08.130Z,1008.751465
2022-10-15T05:02:10.477Z,1008.805298
2022-10-15T05:03:04.939Z,1008.832214
2022-10-15T05:04:06.434Z,1008.829346
2022-10-15T05:05:00.612Z,1008.80249
2022-10-15T05:06:00.401Z,1008.790771
2022-10-15T05:07:03.472Z,1008.762512
2022-10-15T05:07:58.376Z,1008.762512
2022-10-15T05:09:01.954Z,1008.820068
2022-10-15T05:10:02.951Z,1008.723572
2022-10-15T05:11:06.950Z,1008.677063
2022-10-15T05:12:03.894Z,1008.692078
2022-10-15T05:13:38.215Z,1008.69397
2022-10-15T05:16:03.048Z,1008.575195
2022-10-15T05:16:43.016Z,1008.523926
2022-10-15T05:17:41.153Z,1008.477661
2022-10-15T05:18:39.487Z,1008.509949
2022-10-15T05:19:34.815Z,1008.437805
2022-10-15T05:20:34.991Z,1008.47699
2022-10-15T05:22:26.846Z,1008.468384
2022-10-15T05:23:33.997Z,1008.539978
2022-10-15T05:24:33.902Z,1008.500916
2022-10-15T05:25:29.434Z,1008.483337
2022-10-15T05:27:26.698Z,1008.424011
2022-10-15T05:28:26.435Z,1008.43512
2022-10-15T05:29:23.728Z,1008.492371
2022-10-15T05:30:25.799Z,1008.438477
2022-10-15T05:31:22.442Z,1008.422729
2022-10-15T05:32:15.981Z,1008.436951
2022-10-15T05:33:18.724Z,1008.505432
2022-10-15T05:34:09.657Z,1008.52771
2022-10-15T05:35:08.699Z,1008.5354
2022-10-15T05:36:04.298Z,1008.55127
2022-10-15T05:37:02.360Z,1008.496216
2022-10-15T05:37:55.970Z,1008.595886
2022-10-15T05:39:02.339Z,1008.541992
2022-10-15T05:40:00.604Z,1008.561157
2022-10-15T05:41:52.673Z,1008.56427
2022-10-15T05:43:44.552Z,1008.537292
2022-10-15T05:44:45.294Z,1008.599182
2022-10-15T05:45:38.361Z,1008.633789
2022-10-15T05:46:40.909Z,1008.638611
2022-10-15T05:47:43.124Z,1008.630798
2022-10-15T05:48:44.324Z,1008.668823
2022-10-15T05:49:37.607Z,1008.703552
2022-10-15T05:50:43.091Z,1008.69574
2022-10-15T05:51:40.997Z,1008.664185
2022-10-15T05:52:38.867Z,1008.740234
2022-10-15T05:53:42.913Z,1008.719971
2022-10-15T05:54:36.344Z,1008.71228
2022-10-15T05:55:39.109Z,1008.746826
2022-10-15T05:56:29.975Z,1008.71228
2022-10-15T05:57:32.759Z,1008.72821
2022-10-15T05:58:25.719Z,1008.755188
2022-10-15T06:00:24.256Z,1008.774719
2022-10-15T06:01:05.743Z,1008.726807
2022-10-15T06:02:07.098Z,1008.770386
2022-10-15T06:03:05.633Z,1008.762939
2022-10-15T06:04:05.010Z,1008.823364
2022-10-15T06:05:04.066Z,1008.714294
2022-10-15T06:06:59.381Z,1008.769958
2022-10-15T06:08:00.071Z,1008.85083
2022-10-15T06:08:55.247Z,1008.884277
2022-10-15T06:09:54.086Z,1008.790771
2022-10-15T06:10:49.811Z,1008.81781
2022-10-15T06:11:54.913Z,1008.767273
2022-10-15T06:12:50.577Z,1008.78949
2022-10-15T06:13:55.116Z,1008.78479
2022-10-15T06:14:47.772Z,1008.773804
2022-10-15T06:16:50.454Z,1008.854614
2022-10-15T06:17:42.879Z,1008.793152
2022-10-15T06:18:44.841Z,1008.797913
2022-10-15T06:19:37.897Z,1008.797913
2022-10-15T06:20:37.412Z,1008.759705
2022-10-15T06:21:32.685Z,1008.848022
2022-10-15T06:22:32.652Z,1008.859131
2022-10-15T06:23:27.947Z,1008.878662
2022-10-15T06:24:28.671Z,1008.889771
2022-10-15T06:25:21.428Z,1008.897156
2022-10-15T06:27:20.222Z,1008.889771
2022-10-15T06:28:19.747Z,1008.900818
2022-10-15T06:29:20.836Z,1008.892517
2022-10-15T06:30:16.227Z,1008.892517
2022-10-15T06:31:21.839Z,1008.892517
2022-10-15T06:32:13.605Z,1008.908447
2022-10-15T06:33:16.721Z,1008.96582
2022-10-15T06:34:08.531Z,1008.981628
2022-10-15T06:35:08.434Z,1008.951111
2022-10-15T06:36:03.641Z,1008.952454
2022-10-15T06:37:08.310Z,1008.994995
2022-10-15T06:38:03.116Z,1008.960388
2022-10-15T06:39:02.938Z,1008.901855
2022-10-15T06:40:02.702Z,1009.087097
2022-10-15T06:41:53.371Z,1009.014282
2022-10-15T06:42:54.427Z,1008.952454
2022-10-15T06:44:18.916Z,1009.017883
2022-10-15T06:45:00.488Z,1008.971558
2022-10-15T06:46:00.133Z,1009.064697
2022-10-15T06:46:58.864Z,1008.994995
2022-10-15T06:47:58.408Z,1008.937134
2022-10-15T06:48:54.182Z,1009.025391
2022-10-15T06:49:53.896Z,1009.013245
2022-10-15T06:50:51.034Z,1009.082825
2022-10-15T06:51:50.483Z,1009.074585
2022-10-15T06:52:45.891Z,1009.035461
2022-10-15T06:53:47.843Z,1009.105103
2022-10-15T06:54:41.934Z,1009.096863
2022-10-15T06:56:03.101Z,1009.112671
2022-10-15T06:57:01.304Z,1009.063354
2022-10-15T06:58:02.664Z,1009.090393
2022-10-15T06:58:57.826Z,1009.051331
2022-10-15T06:59:57.676Z,1009.112671
2022-10-15T07:00:53.091Z,1009.004944
2022-10-15T07:02:01.422Z,1009.016052
2022-10-15T07:02:53.983Z,1009.042969
2022-10-15T07:03:54.659Z,1009.120911
2022-10-15T07:04:51.731Z,1009.085693
2022-10-15T07:06:47.168Z,1009.174805
2022-10-15T07:07:47.420Z,1009.067078
2022-10-15T07:08:48.976Z,1009.128418
2022-10-15T07:09:41.813Z,1009.133118
2022-10-15T07:11:37.559Z,1009.041199
2022-10-15T07:12:37.389Z,1009.107361
2022-10-15T07:13:34.452Z,1009.12323
2022-10-15T07:14:34.883Z,1009.042419
2022-10-15T07:15:29.628Z,1009.120117
2022-10-15T07:16:29.959Z,1009.062927
2022-10-15T07:17:29.185Z,1009.140564
2022-10-15T07:19:07.602Z,1009.142822
2022-10-15T07:20:06.850Z,1009.034241
2022-10-15T07:22:02.851Z,1009.092102
2022-10-15T07:23:04.239Z,1009.036499
2022-10-15T07:23:59.723Z,1008.998169
2022-10-15T07:25:00.031Z,1008.99176
2022-10-15T07:26:24.143Z,1009.123962
2022-10-15T07:27:08.048Z,1009.057617
2022-10-15T07:27:18.650Z,1009.057617
2022-10-15T07:27:20.869Z,1009.057617
2022-10-15T07:28:05.899Z,1009.108643
2022-10-15T07:29:04.208Z,1009.095032
2022-10-15T07:30:00.569Z,1009.134644
2022-10-15T07:31:00.474Z,1009.106201
2022-10-15T07:31:56.048Z,1009.100342
2022-10-15T07:32:56.359Z,1009.072449
2022-10-15T07:33:52.734Z,1009.058594
2022-10-15T07:34:56.238Z,1009.115295
2022-10-15T07:36:54.818Z,1009.116211
2022-10-15T07:37:53.443Z,1009.151123
2022-10-15T07:38:57.403Z,1009.154419
2022-10-15T07:39:50.948Z,1009.223999
2022-10-15T07:41:46.396Z,1009.116211
2022-10-15T07:42:48.978Z,1009.220825
2022-10-15T07:43:41.667Z,1009.136658
2022-10-15T07:44:42.755Z,1009.033508
2022-10-15T07:46:41.138Z,1009.105835
2022-10-15T07:47:33.813Z,1009.121765
2022-10-15T07:48:38.088Z,1009.113464
2022-10-15T07:49:32.483Z,1009.186707
2022-10-15T07:50:36.235Z,1009.151428
2022-10-15T07:52:33.889Z,1009.210083
2022-10-15T07:53:35.955Z,1009.137512
2022-10-15T07:54:30.180Z,1009.194275
2022-10-15T07:55:29.153Z,1009.097534
2022-10-15T07:57:25.614Z,1009.12915
2022-10-15T07:58:20.901Z,1009.04364
2022-10-15T07:59:20.540Z,1009.016724
2022-10-15T08:00:15.771Z,1009.009338
2022-10-15T08:02:10.753Z,1009.013977
2022-10-15T08:03:10.638Z,1008.971985
2022-10-15T08:04:05.978Z,1008.945068
2022-10-15T08:05:06.156Z,1008.931152
2022-10-15T08:06:02.205Z,1008.950989
2022-10-15T08:07:01.961Z,1008.839966
2022-10-15T08:07:57.126Z,1008.863586
2022-10-15T08:09:34.211Z,1008.866333
2022-10-15T08:10:14.143Z,1008.94165
2022-10-15T08:12:11.314Z,1008.851501
2022-10-15T08:13:06.654Z,1008.825317
2022-10-15T08:14:05.875Z,1008.790894
2022-10-15T08:15:01.028Z,1008.863464
2022-10-15T08:16:01.248Z,1008.833801
2022-10-15T08:17:38.644Z,1008.816711
2022-10-15T08:18:18.894Z,1008.754211
2022-10-15T08:19:17.200Z,1008.694824
2022-10-15T08:20:17.553Z,1008.691101
2022-10-15T08:21:13.078Z,1008.694824
2022-10-15T08:22:12.956Z,1008.648315
2022-10-15T08:23:47.449Z,1008.668701
2022-10-15T08:24:27.318Z,1008.688965
2022-10-15T08:26:34.886Z,1008.694702
2022-10-15T08:26:41.826Z,1008.673645
2022-10-15T08:27:42.378Z,1008.682617
2022-10-15T08:28:38.861Z,1008.795227
2022-10-15T08:29:38.224Z,1008.741211
2022-10-15T08:30:33.394Z,1008.751526
2022-10-15T08:31:33.484Z,1008.747009
2022-10-15T08:32:28.739Z,1008.807556
2022-10-15T08:33:28.506Z,1008.764771
2022-10-15T08:34:23.854Z,1008.856934
2022-10-15T08:35:23.625Z,1008.817566
2022-10-15T08:37:21.286Z,1008.736694
2022-10-15T08:38:17.496Z,1008.705261
2022-10-15T08:38:19.947Z,1008.705261
2022-10-15T08:39:14.914Z,1008.591248
2022-10-15T08:40:11.231Z,1008.721008
2022-10-15T08:42:12.222Z,1008.680542
2022-10-15T08:43:09.361Z,1008.699768
2022-10-15T08:44:11.542Z,1008.606079
2022-10-15T08:45:08.894Z,1008.698547
2022-10-15T08:46:13.729Z,1008.775024
2022-10-15T08:47:08.975Z,1008.704224
2022-10-15T08:48:09.451Z,1008.741211
2022-10-15T08:49:10.190Z,1008.786377
2022-10-15T08:50:06.705Z,1008.740723
2022-10-15T08:52:06.163Z,1008.7948
2022-10-15T08:53:06.892Z,1008.807251
2022-10-15T08:54:03.232Z,1008.687988
2022-10-15T08:55:06.647Z,1008.762329
2022-10-15T08:57:03.737Z,1008.719543
2022-10-15T08:57:57.998Z,1008.757813
2022-10-15T08:59:00.651Z,1008.625977
2022-10-15T08:59:54.954Z,1008.649658
2022-10-15T09:00:57.619Z,1008.575439
2022-10-15T09:01:51.917Z,1008.591187
2022-10-15T09:02:50.506Z,1008.653015
2022-10-15T09:03:49.721Z,1008.556091
2022-10-15T09:04:46.109Z,1008.567383
2022-10-15T09:05:46.460Z,1008.639893
2022-10-15T09:06:41.969Z,1008.678284
2022-10-15T09:07:44.662Z,1008.687988
2022-10-15T09:08:40.210Z,1008.665955
2022-10-15T09:09:37.731Z,1008.688538
2022-10-15T09:10:37.753Z,1008.714172
2022-10-15T09:12:35.542Z,1008.612976
2022-10-15T09:14:10.342Z,1008.557922
2022-10-15T09:16:24.714Z,1008.628784
2022-10-15T09:17:07.503Z,1008.605713
2022-10-15T09:18:06.669Z,1008.560669
2022-10-15T09:19:06.090Z,1008.552917
2022-10-15T09:20:01.835Z,1008.556091
2022-10-15T09:21:02.202Z,1008.532715
2022-10-15T09:21:57.668Z,1008.521423
2022-10-15T09:22:58.057Z,1008.440308
2022-10-15T09:23:53.552Z,1008.540405
2022-10-15T09:24:54.062Z,1008.486328
2022-10-15T09:26:50.897Z,1008.471863
2022-10-15T09:27:47.287Z,1008.388489
2022-10-15T09:28:47.543Z,1008.365967
2022-10-15T09:29:43.268Z,1008.332214
2022-10-15T09:31:40.461Z,1008.343384
2022-10-15T09:32:38.303Z,1008.400818
2022-10-15T09:33:39.297Z,1008.301575
2022-10-15T09:34:34.883Z,1008.366882
2022-10-15T13:25:15.867Z,1006.731689
2022-10-15T13:26:17.745Z,1006.713623
2022-10-15T13:27:14.607Z,1006.741577
2022-10-15T13:28:16.362Z,1006.840027
2022-10-15T13:29:12.927Z,1006.872803
2022-10-15T13:30:16.984Z,1006.761169
2022-10-15T13:32:13.147Z,1006.790161
2022-10-15T13:33:09.726Z,1006.729492
2022-10-15T13:34:10.662Z,1006.832947
2022-10-15T13:35:07.042Z,1006.811584
2022-10-15T13:36:10.471Z,1006.787109
2022-10-15T13:37:04.819Z,1006.778198
2022-10-15T13:38:05.672Z,1006.850952
2022-10-15T13:39:01.756Z,1006.79126
2022-10-15T13:40:06.596Z,1006.80603
2022-10-15T13:40:08.268Z,1006.80603
2022-10-15T13:41:00.846Z,1006.820923
2022-10-15T13:41:56.622Z,1006.850769
2022-10-15T13:42:57.172Z,1006.900635
2022-10-15T13:43:54.235Z,1006.854065
2022-10-15T13:45:29.223Z,1006.854065
2022-10-15T13:45:49.252Z,1006.874451
2022-10-15T13:47:47.173Z,1006.829651
2022-10-15T13:49:40.882Z,1006.8479
2022-10-15T13:50:41.133Z,1006.835876
2022-10-15T13:51:36.664Z,1006.904846
2022-10-15T13:52:36.093Z,1006.92395
2022-10-15T13:53:30.979Z,1006.907166
2022-10-15T13:54:32.748Z,1006.87146
2022-10-15T13:55:29.707Z,1006.85968
2022-10-15T13:57:27.182Z,1006.862488
2022-10-15T13:58:27.702Z,1006.854675
2022-10-15T13:59:21.664Z,1006.858154
2022-10-15T14:00:21.304Z,1006.834595
2022-10-15T14:02:13.216Z,1006.899109
2022-10-15T14:03:14.905Z,1006.914673
2022-10-15T14:04:08.314Z,1006.84845
2022-10-15T14:05:10.259Z,1006.84845
2022-10-15T14:06:02.250Z,1006.868103
2022-10-15T14:07:02.411Z,1006.906921
2022-10-15T14:07:57.229Z,1006.883179
2022-10-15T14:08:56.444Z,1006.813965
2022-10-15T14:09:50.885Z,1006.895264
2022-10-15T14:10:52.625Z,1006.839722
2022-10-15T14:12:43.075Z,1006.731445
2022-10-15T14:13:42.300Z,1006.785583
2022-10-15T14:14:39.170Z,1006.820984
2022-10-15T14:15:33.741Z,1006.828491
2022-10-15T14:16:35.697Z,1006.879456
2022-10-15T14:17:28.482Z,1006.921021
2022-10-15T14:18:30.324Z,1006.870911
2022-10-15T14:19:22.572Z,1006.913696
2022-10-15T14:20:27.923Z,1006.859558
2022-10-15T14:22:47.724Z,1006.899109
2022-10-15T14:22:54.782Z,1006.912292
2022-10-15T14:23:54.686Z,1006.905518
2022-10-15T14:24:49.503Z,1006.886597
2022-10-15T14:25:48.506Z,1006.882385
2022-10-15T14:26:43.739Z,1006.866089
2022-10-15T14:27:43.475Z,1006.915894
2022-10-15T14:28:38.416Z,1006.941833
2022-10-15T14:29:39.955Z,1006.856201
2022-10-15T14:30:32.433Z,1006.886841
2022-10-15T14:32:26.873Z,1006.882568
2022-10-15T14:33:27.105Z,1006.848083
2022-10-15T14:34:22.318Z,1006.870911
2022-10-15T14:35:21.146Z,1006.885315
2022-10-15T14:36:15.504Z,1006.753784
2022-10-15T14:37:14.678Z,1006.853882
2022-10-15T14:38:09.022Z,1006.865356
2022-10-15T14:39:08.280Z,1006.892334
2022-10-15T14:40:03.551Z,1006.845276
2022-10-15T14:41:04.847Z,1006.934814
2022-10-15T14:41:07.336Z,1006.934814
2022-10-15T14:41:59.861Z,1006.876648
2022-10-15T14:42:55.074Z,1006.835083
2022-10-15T14:43:56.500Z,1006.846497
2022-10-15T14:44:48.535Z,1006.986206
2022-10-15T14:45:54.747Z,1006.889221
2022-10-15T14:46:49.158Z,1007.047852
2022-10-15T14:47:46.781Z,1006.989319
2022-10-15T14:48:48.184Z,1007.000305
2022-10-15T14:49:43.275Z,1007.019714
2022-10-15T14:50:46.166Z,1007.046753
2022-10-15T14:51:43.519Z,1007.108582
2022-10-15T14:52:40.931Z,1007.16272
2022-10-15T14:53:41.120Z,1007.286804
2022-10-15T14:54:36.296Z,1007.305603
2022-10-15T14:55:36.077Z,1007.383789
2022-10-15T14:56:32.352Z,1007.388184
2022-10-15T14:57:32.293Z,1007.388184
2022-10-15T14:58:31.124Z,1007.395142
2022-10-15T15:00:29.299Z,1007.357117
2022-10-15T15:00:55.198Z,1007.420044
2022-10-15T15:01:58.535Z,1007.410278
2022-10-15T15:02:02.895Z,1007.410278
2022-10-15T15:02:55.616Z,1007.379639
2022-10-15T15:03:50.834Z,1007.344666
2022-10-15T15:04:50.149Z,1007.405945
2022-10-15T15:05:45.570Z,1007.471008
2022-10-15T15:06:51.010Z,1007.481201
2022-10-15T15:07:45.545Z,1007.499512
2022-10-15T15:08:44.929Z,1007.483398
2022-10-15T15:09:40.225Z,1007.444275
2022-10-15T15:10:40.267Z,1007.478271
2022-10-15T15:11:34.948Z,1007.582214
2022-10-15T15:12:37.479Z,1007.507996
2022-10-15T15:13:29.963Z,1007.569153
2022-10-15T15:14:30.075Z,1007.561829
2022-10-15T15:15:24.581Z,1007.51062
2022-10-15T15:16:26.206Z,1007.460449
2022-10-15T15:17:21.843Z,1007.483093
2022-10-15T15:18:23.837Z,1007.427734
2022-10-15T15:19:18.068Z,1007.463013
2022-10-15T15:20:16.353Z,1007.512817
2022-10-15T15:21:10.495Z,1007.466003
2022-10-15T15:22:07.149Z,1007.492676
2022-10-15T15:23:09.307Z,1007.50415
2022-10-15T15:24:05.988Z,1007.518982
2022-10-15T15:25:08.338Z,1007.576599
2022-10-15T15:26:00.418Z,1007.541748
2022-10-15T15:27:00.164Z,1007.580078
2022-10-15T15:27:56.231Z,1007.584534
2022-10-15T15:28:59.535Z,1007.622925
2022-10-15T15:29:52.673Z,1007.595886
2022-10-15T15:30:55.179Z,1007.521667
2022-10-15T15:32:46.812Z,1007.571289
2022-10-15T15:33:46.313Z,1007.574707
2022-10-15T15:34:38.963Z,1007.601746
2022-10-15T15:35:41.170Z,1007.531921
2022-10-15T15:37:34.704Z,1007.585266
2022-10-15T15:39:34.420Z,1007.56897
2022-10-15T15:41:01.025Z,1007.537476
2022-10-15T15:41:41.691Z,1007.618835
2022-10-15T15:42:45.913Z,1007.545044
2022-10-15T15:43:45.358Z,1007.599182
2022-10-15T15:44:44.976Z,1007.652771
2022-10-15T15:45:41.253Z,1007.667542
2022-10-15T15:46:39.792Z,1007.690308
2022-10-15T15:47:40.960Z,1007.681519
2022-10-15T15:48:38.924Z,1007.688416
2022-10-15T15:49:38.015Z,1007.699768
2022-10-15T15:50:33.666Z,1007.726807
2022-10-15T15:51:33.410Z,1007.714355
2022-10-15T15:52:31.280Z,1007.7677
2022-10-15T15:52:36.269Z,1007.7677
2022-10-15T15:53:28.923Z,1007.764587
2022-10-15T15:54:28.646Z,1007.799194
2022-10-15T15:55:24.845Z,1007.799194
2022-10-15T15:56:24.684Z,1007.821777
2022-10-15T15:57:23.020Z,1007.871521
2022-10-15T15:58:22.868Z,1007.812866
2022-10-15T15:59:18.388Z,1007.893982
2022-10-15T16:00:16.801Z,1007.86615
2022-10-15T16:01:24.983Z,1007.904663
2022-10-15T16:02:18.296Z,1007.969849
2022-10-15T16:03:14.854Z,1007.988708
2022-10-15T16:04:17.115Z,1007.981201
2022-10-15T16:05:11.352Z,1007.934631
2022-10-15T16:06:15.411Z,1007.954224
2022-10-15T16:07:13.192Z,1008.027039
2022-10-15T16:08:11.499Z,1008.01178
2022-10-15T16:09:04.370Z,1007.999939
2022-10-15T16:10:04.890Z,1007.957703
2022-10-15T16:11:00.645Z,1007.953369
2022-10-15T16:12:00.661Z,1008.053528
2022-10-15T16:12:59.893Z,1007.956665
2022-10-15T16:13:59.076Z,1008.014343
2022-10-15T16:14:59.698Z,1008.118042
2022-10-15T16:16:01.561Z,1008.129333